This is the latest recevied weather packets stored in our database for station/object K5FEP. If no packets are shown the sender has not sent any weather packets the latest 10 day(s).
| Time | Temp. | Humidity | Pressure | Rain* | Wind** | Luminosity | Snow |
|---|---|---|---|---|---|---|---|
| 1788044863 | 27.78° C | 71% | 1020.4 hPa | 0 mm | - | 58 W/m² | - |
| 1788044557 | 28.33° C | 70% | 1020.2 hPa | 0 mm | - | 63 W/m² | - |
| 1788044256 | 28.33° C | 71% | 1020.3 hPa | 0 mm | - | 67 W/m² | - |
| 1788043952 | 28.89° C | 67% | 1020.5 hPa | 0 mm | - | 77 W/m² | - |
| 1788043648 | 28.89° C | 68% | 1020.4 hPa | 0 mm | - | 86 W/m² | - |
| 1788043343 | 28.89° C | 67% | 1020.4 hPa | 0 mm | - | 106 W/m² | - |
| 1788043042 | 28.89° C | 66% | 1020.4 hPa | 0 mm | - | 117 W/m² | - |
| 1788042738 | 28.33° C | 69% | 1020.2 hPa | 0 mm | - | 130 W/m² | - |
| 1788042437 | 28.33° C | 69% | 1020.5 hPa | 0 mm | - | 134 W/m² | - |
| 1788042132 | 28.33° C | 69% | 1020.3 hPa | 0 mm | - | 87 W/m² | - |
| 1788041828 | 28.89° C | 68% | 1020.5 hPa | 0 mm | - | 93 W/m² | - |
| 1788041523 | 28.89° C | 68% | 1020.3 hPa | 0 mm | - | 97 W/m² | - |
| 1788041218 | 28.89° C | 68% | 1020.3 hPa | 0 mm | - | 222 W/m² | - |
| 1788040916 | 28.89° C | 70% | 1020.4 hPa | 0 mm | - | 242 W/m² | - |
| 1788040615 | 28.33° C | 71% | 1020.6 hPa | 0 mm | - | 248 W/m² | - |
| 1788040310 | 27.78° C | 73% | 1020.5 hPa | 0 mm | - | 314 W/m² | - |
| 1788040010 | 27.78° C | 74% | 1020.6 hPa | 0 mm | - | 145 W/m² | - |
| 1788039705 | 27.78° C | 74% | 1020.7 hPa | 0 mm | - | 138 W/m² | - |
| 1788039400 | 27.78° C | 73% | 1020.6 hPa | 0 mm | - | 147 W/m² | - |
| 1788039096 | 27.78° C | 73% | 1020.6 hPa | 0 mm | - | 145 W/m² | - |
| 1788038791 | 27.78° C | 72% | 1020.7 hPa | 0 mm | - | 126 W/m² | - |
| 1788038497 | 28.33° C | 69% | 1020.6 hPa | 0 mm | - | 131 W/m² | - |
| 1788038191 | 28.89° C | 65% | 1020.6 hPa | 0 mm | - | 125 W/m² | - |
| 1788037891 | 28.89° C | 64% | 1020.9 hPa | 0 mm | - | 99 W/m² | - |
| 1788037586 | 29.44° C | 60% | 1020.6 hPa | 0 mm | - | 119 W/m² | - |
* Rain latest hour (hover to see other rain measurements)
** Current wind speed in m/s (hover to see current wind gust speed)